Naples, FL

10:11 PM EDT on May 26, 2015 (GMT -0400)
Naples Municipal | | Change Station
CLOSE
Current Station
Airport
Location: Naples,
Elevation: 10 ft
Nearby Weather Stations

Elev 10 ft 26.16 °N, 81.77 °W | Updated 18 minutes ago

Overcast
Overcast
80 °F
Feels Like 85 °F
N
5
Wind Variable Wind from NE

Today
High -- | Low -- °F
--% Chance of Precip.
Yesterday
High -- | Low -- °F
Precip. -- in
6:36 AM 8:12 PM
Waxing Gibbous, 63% visible
Pressure 30.13 in
Visibility 10.0 miles
Clouds Mostly Cloudy 4700 ft
Overcast 6000 ft
Heat Index 85 °F
Dew Point 75 °F
Humidity 85%
Rainfall 0.13 in
Snow Depth Not available.
UV 0 out of 12
Pollen 4.70 out of 12
Air Quality Not available.
Flu Activity Sporadic
METAR KAPF 270153Z 04004KT 10SM BKN047 OVC060 27/24 A3013 RMK AO2 LTG DSNT SW-NW SLP202 T02670239

More Conditions Fewer Conditions

Pressure 30.13 in
Visibility 10.0 miles
Clouds Mostly Cloudy 4700 ft
Overcast 6000 ft
Heat Index 85 °F
Dew Point 75 °F
Humidity 85%
Rainfall 0.13 in
Snow Depth Not available.
UV 0 out of 12
Pollen 4.70 out of 12
Air Quality Not available.
Flu Activity Sporadic
METAR KAPF 270153Z 04004KT 10SM BKN047 OVC060 27/24 A3013 RMK AO2 LTG DSNT SW-NW SLP202 T02670239

More Conditions Fewer Conditions

10-Day Weather Forecast

Almanac

Astronomy

May. 26, 2015 Rise Set
Actual Time
Civil Twilight
Nautical Twilight
Astronomical Twilight
Moon
Length of Visible Light
Length of Day
Tomorrow will be .
, % of the Moon is Illuminated

Today's Extremes

State Highs State Lows

Community

WunderPhotos

Upload Photos

1,824,561 photos uploaded!

WunderBlogs® & News

Nearby

Air Quality

  Air Quality AQ Index Pollutant
Not available.

Snow Depth

Station Depth Elevation

Earthquake Activity

City Distance Mag. Time & Date
Minimum magnitude displayed is 2.5.

Coastal Water Temperatures

Place Temperature

Stations

Nearby Weather Stations

Station Location Temp. Windchill Dew Point Humidity Wind Precip. Elev Updated Type